Time;durP1;ratioP1;P1;durP2;ratioP2;P2;SDS_P1;SDS_P2;PMS_P1;PMS_P2;Temp;Humidity;BMP_temperature;BMP_pressure;BME280_temperature;BME280_humidity;BME280_pressure;Samples;Min_cycle;Max_cycle;Signal;HPM_P1;HPM_P2
2022/04/10 00:01:32;;;;;;;8.88;2.85;;;;;;;1.59;76.07;95495.31;5109802;28;20043;-77
2022/04/10 00:03:58;;;;;;;7.60;2.70;;;;;;;1.66;75.32;95498.66;5111358;28;20044;-77
2022/04/10 00:06:24;;;;;;;8.00;3.00;;;;;;;1.56;75.32;95494.72;5098240;28;20105;-78
2022/04/10 00:08:50;;;;;;;7.65;2.70;;;;;;;1.60;75.28;95499.50;5108898;28;20637;-77
2022/04/10 00:11:16;;;;;;;9.07;2.50;;;;;;;1.66;74.01;95499.44;5110639;28;20050;-77
2022/04/10 00:13:41;;;;;;;6.25;2.55;;;;;;;1.55;74.86;95498.34;5087365;28;20040;-77
2022/04/10 00:16:08;;;;;;;7.10;2.83;;;;;;;1.53;75.97;95495.16;5093119;28;20090;-77
2022/04/10 00:18:34;;;;;;;7.07;2.63;;;;;;;1.52;75.72;95488.41;5091256;28;20044;-76
2022/04/10 00:21:01;;;;;;;7.45;2.97;;;;;;;1.47;76.75;95501.19;5091932;28;20497;-77
2022/04/10 00:23:27;;;;;;;6.78;2.83;;;;;;;1.51;75.58;95491.97;5093837;28;20088;-77
2022/04/10 00:25:52;;;;;;;8.40;3.08;;;;;;;1.39;76.00;95493.66;5081143;28;20125;-77
2022/04/10 00:28:18;;;;;;;6.22;2.95;;;;;;;1.39;76.37;95498.84;5092974;28;20494;-77
2022/04/10 00:30:43;;;;;;;5.10;2.60;;;;;;;1.41;76.69;95501.22;5106325;28;20039;-77
2022/04/10 00:33:09;;;;;;;4.53;2.60;;;;;;;1.34;77.10;95499.50;5089397;28;20571;-77
2022/04/10 00:35:35;;;;;;;5.90;2.75;;;;;;;1.25;76.01;95499.97;5104970;28;20540;-77
2022/04/10 00:38:00;;;;;;;5.70;3.10;;;;;;;1.37;76.60;95500.88;5099284;28;20040;-77
2022/04/10 00:40:26;;;;;;;7.75;2.83;;;;;;;1.28;76.78;95502.13;5093652;28;20040;-77
2022/04/10 00:42:51;;;;;;;5.15;2.60;;;;;;;1.18;77.04;95502.63;5092655;28;20036;-77
2022/04/10 00:45:18;;;;;;;6.80;2.88;;;;;;;1.16;76.80;95505.38;5096813;28;20525;-77
2022/04/10 00:47:45;;;;;;;8.52;2.92;;;;;;;1.16;77.84;95505.38;5074835;28;20052;-77
2022/04/10 00:50:12;;;;;;;8.00;2.88;;;;;;;1.16;77.43;95510.56;5093299;28;20398;-77
2022/04/10 00:52:40;;;;;;;7.80;2.80;;;;;;;1.14;77.96;95501.44;5092963;28;20097;-77
2022/04/10 00:55:07;;;;;;;5.28;2.70;;;;;;;1.05;78.34;95503.50;5110485;28;20090;-77
2022/04/10 00:57:32;;;;;;;6.72;3.13;;;;;;;1.02;78.97;95509.06;5086946;28;20043;-77
2022/04/10 00:59:58;;;;;;;5.63;3.05;;;;;;;0.97;78.72;95501.94;5094227;28;20036;-77
2022/04/10 01:02:24;;;;;;;10.25;3.40;;;;;;;0.92;79.03;95504.38;5107587;28;20402;-77
2022/04/10 01:04:49;;;;;;;8.52;3.00;;;;;;;0.89;79.23;95509.16;5103005;28;20126;-77
2022/04/10 01:07:17;;;;;;;9.07;3.15;;;;;;;0.94;79.44;95504.16;5092072;28;20051;-77
2022/04/10 01:09:43;;;;;;;5.68;2.80;;;;;;;0.84;80.27;95502.78;5090902;28;20040;-77
2022/04/10 01:12:09;;;;;;;6.35;2.90;;;;;;;0.84;80.28;95507.97;5090229;28;20047;-76
2022/04/10 01:14:36;;;;;;;7.80;3.15;;;;;;;0.80;80.41;95501.63;5093454;28;20039;-76
2022/04/10 01:17:02;;;;;;;7.22;3.08;;;;;;;0.71;81.07;95508.06;5106931;28;20417;-76
2022/04/10 01:19:28;;;;;;;10.02;3.35;;;;;;;0.65;81.76;95509.69;5100487;28;20044;-77
2022/04/10 01:22:03;;;;;;;6.15;2.95;;;;;;;0.63;81.60;95508.28;5076536;28;20044;-77
2022/04/10 01:24:29;;;;;;;6.65;3.35;;;;;;;0.52;82.13;95499.38;5071765;28;20067;-77
2022/04/10 01:26:54;;;;;;;8.43;3.10;;;;;;;0.58;82.53;95514.09;5100599;28;20493;-77
2022/04/10 01:29:20;;;;;;;8.32;3.35;;;;;;;0.53;82.91;95511.31;5109015;28;20039;-76
2022/04/10 01:31:46;;;;;;;6.75;2.95;;;;;;;0.51;83.47;95518.50;5093073;28;20055;-76
2022/04/10 01:34:14;;;;;;;8.82;3.20;;;;;;;0.51;83.07;95514.09;5091042;28;20036;-77
2022/04/10 01:36:41;;;;;;;5.97;3.30;;;;;;;0.48;83.98;95519.69;5096479;28;20043;-77
2022/04/10 01:39:08;;;;;;;8.93;3.03;;;;;;;0.47;83.90;95518.09;5108774;28;20042;-76
2022/04/10 01:41:37;;;;;;;6.97;3.30;;;;;;;0.48;83.90;95524.88;5077192;28;20036;-76
2022/04/10 01:44:07;;;;;;;8.13;3.28;;;;;;;0.52;84.57;95520.88;5089726;28;20113;-76
2022/04/10 01:46:33;;;;;;;7.05;3.03;;;;;;;0.50;84.55;95517.72;5076844;28;20039;-76
2022/04/10 01:48:59;;;;;;;5.00;2.85;;;;;;;0.56;84.68;95515.28;5100484;28;20044;-77
2022/04/10 01:51:25;;;;;;;6.43;3.05;;;;;;;0.56;85.24;95516.09;5089821;28;20055;-76
2022/04/10 01:53:53;;;;;;;9.07;3.22;;;;;;;0.59;86.09;95514.88;5086231;28;20047;-76
2022/04/10 01:56:19;;;;;;;5.80;2.90;;;;;;;0.62;84.85;95514.50;5075679;28;20114;-76
2022/04/10 01:58:46;;;;;;;8.38;3.97;;;;;;;0.65;85.61;95514.06;5102050;28;20044;-76
2022/04/10 02:01:14;;;;;;;6.05;2.88;;;;;;;0.69;85.24;95516.03;5076923;28;20393;-76
2022/04/10 02:03:40;;;;;;;7.55;3.63;;;;;;;0.73;85.39;95516.41;5093445;28;20036;-76
2022/04/10 02:06:07;;;;;;;6.35;2.90;;;;;;;0.79;85.44;95519.97;5102335;28;20054;-76
2022/04/10 02:08:35;;;;;;;6.63;2.78;;;;;;;0.80;86.06;95521.56;5086892;28;20508;-76
2022/04/10 02:11:01;;;;;;;4.75;3.00;;;;;;;0.80;85.82;95522.34;5078503;28;20048;-77
2022/04/10 02:13:27;;;;;;;8.18;3.38;;;;;;;0.81;85.81;95529.13;5092925;28;20043;-76
2022/04/10 02:15:52;;;;;;;6.75;2.90;;;;;;;0.90;85.33;95536.66;5105842;28;20044;-76
2022/04/10 02:18:18;;;;;;;8.80;3.17;;;;;;;0.86;86.68;95526.72;5091852;28;20043;-77
2022/04/10 02:20:43;;;;;;;5.45;2.80;;;;;;;0.94;86.19;95527.47;5089163;28;20039;-77
2022/04/10 02:23:09;;;;;;;5.10;2.90;;;;;;;1.02;86.06;95534.97;5103712;28;20035;-77
2022/04/10 02:25:35;;;;;;;4.88;2.85;;;;;;;0.98;86.21;95539.03;5078789;28;20048;-76
2022/04/10 02:28:01;;;;;;;6.68;3.10;;;;;;;1.05;86.65;95542.38;5103888;28;20047;-77
2022/04/10 02:30:27;;;;;;;9.82;3.50;;;;;;;0.97;87.33;95529.66;5091459;28;20093;-77
2022/04/10 02:32:52;;;;;;;9.02;3.47;;;;;;;1.02;87.57;95545.34;5090538;28;20090;-77
2022/04/10 02:35:18;;;;;;;8.35;3.03;;;;;;;1.02;87.30;95540.16;5072914;28;20040;-77
2022/04/10 02:37:47;;;;;;;8.10;3.42;;;;;;;1.07;87.68;95542.16;5078357;28;20040;-76
2022/04/10 02:40:14;;;;;;;5.63;3.35;;;;;;;1.12;87.97;95545.72;5082477;28;20044;-76
2022/04/10 02:42:41;;;;;;;8.95;3.38;;;;;;;1.17;87.75;95548.47;5100821;28;20036;-76
2022/04/10 02:45:07;;;;;;;5.68;3.13;;;;;;;1.10;88.15;95547.72;5088778;28;20040;-76
2022/04/10 02:47:33;;;;;;;6.75;3.35;;;;;;;1.06;89.37;95546.53;5098073;28;20036;-76
2022/04/10 02:49:59;;;;;;;6.47;2.72;;;;;;;1.09;89.92;95546.09;5092668;28;20047;-76
2022/04/10 02:52:25;;;;;;;6.80;3.10;;;;;;;0.99;90.46;95551.78;5088960;28;20071;-76
2022/04/10 02:54:51;;;;;;;7.18;3.08;;;;;;;1.16;89.75;95549.47;5089053;28;20490;-76
2022/04/10 02:57:16;;;;;;;5.18;3.00;;;;;;;1.04;90.50;95548.53;5072004;28;20111;-76
2022/04/10 02:59:42;;;;;;;5.03;2.70;;;;;;;1.12;89.91;95539.72;5096871;28;20047;-76
2022/04/10 03:02:07;;;;;;;7.75;2.70;;;;;;;1.11;89.94;95554.50;5090243;28;20101;-76
2022/04/10 03:04:32;;;;;;;7.15;2.85;;;;;;;1.04;90.26;95556.31;5075937;28;20549;-76
2022/04/10 03:06:58;;;;;;;6.60;3.17;;;;;;;1.13;90.48;95552.47;5104703;28;20059;-77
2022/04/10 03:09:24;;;;;;;4.93;2.50;;;;;;;1.12;91.20;95556.09;5097688;28;20048;-77
2022/04/10 03:11:49;;;;;;;5.22;3.25;;;;;;;1.15;91.33;95555.66;5097405;28;20044;-77
2022/04/10 03:14:15;;;;;;;8.73;2.90;;;;;;;1.11;91.25;95559.66;5101867;28;20047;-77
2022/04/10 03:16:42;;;;;;;3.97;2.40;;;;;;;1.13;92.82;95547.28;5092855;28;20489;-76
2022/04/10 03:19:08;;;;;;;8.60;2.90;;;;;;;1.14;93.68;95559.25;5093537;28;20044;-77
2022/04/10 03:21:34;;;;;;;10.57;2.88;;;;;;;1.04;95.80;95559.69;5106956;28;20096;-77
2022/04/10 03:24:01;;;;;;;5.85;2.70;;;;;;;1.09;94.75;95571.25;5109261;28;20043;-76
2022/04/10 03:26:27;;;;;;;6.18;3.00;;;;;;;1.15;95.86;95566.03;5081298;28;20092;-76
2022/04/10 03:28:53;;;;;;;6.93;2.85;;;;;;;1.20;95.31;95563.59;5103488;27;20101;-76
2022/04/10 03:31:20;;;;;;;8.30;3.00;;;;;;;1.12;95.07;95566.44;5094622;28;20047;-76
2022/04/10 03:33:46;;;;;;;8.70;4.53;;;;;;;1.22;95.50;95563.38;5109768;28;20065;-77
2022/04/10 03:36:13;;;;;;;7.32;3.38;;;;;;;1.08;96.79;95567.06;5088272;28;20528;-76
2022/04/10 03:38:38;;;;;;;7.97;3.50;;;;;;;1.05;95.78;95563.09;5074851;28;20097;-76
2022/04/10 03:41:04;;;;;;;10.88;3.70;;;;;;;1.20;94.82;95563.59;5090676;28;20039;-76
2022/04/10 03:43:32;;;;;;;10.00;3.50;;;;;;;1.11;95.59;95564.84;5092744;28;20039;-77
2022/04/10 03:45:58;;;;;;;6.68;3.65;;;;;;;1.14;95.78;95571.44;5096686;28;20047;-77
2022/04/10 03:48:23;;;;;;;5.85;3.60;;;;;;;1.14;95.89;95567.03;5101338;28;20032;-76
2022/04/10 03:50:49;;;;;;;6.32;3.70;;;;;;;1.15;95.63;95573.81;5092272;28;20051;-77
2022/04/10 03:53:15;;;;;;;9.98;3.63;;;;;;;1.11;96.95;95574.44;5090143;28;20051;-77
2022/04/10 03:55:40;;;;;;;9.40;4.20;;;;;;;1.11;97.35;95569.25;5100000;28;20105;-76
2022/04/10 03:58:06;;;;;;;9.02;3.88;;;;;;;1.08;97.56;95570.47;5090512;28;20414;-76
2022/04/10 04:00:31;;;;;;;7.43;3.78;;;;;;;1.00;98.31;95562.91;5099949;28;20110;-76
2022/04/10 04:02:57;;;;;;;8.20;4.00;;;;;;;0.96;98.84;95574.69;5107222;28;20509;-76
2022/04/10 04:05:23;;;;;;;7.85;3.92;;;;;;;1.01;98.61;95574.88;5098578;28;20131;-77
2022/04/10 04:07:48;;;;;;;10.52;4.60;;;;;;;1.05;98.36;95576.06;5110410;28;20527;-76
2022/04/10 04:10:14;;;;;;;7.45;4.32;;;;;;;1.01;98.33;95574.88;5107608;28;20043;-77
2022/04/10 04:12:39;;;;;;;7.68;4.03;;;;;;;1.03;98.06;95578.06;5080860;28;20515;-76
2022/04/10 04:15:05;;;;;;;9.95;4.70;;;;;;;0.97;98.90;95571.13;5086111;28;20039;-76
2022/04/10 04:17:31;;;;;;;10.23;4.75;;;;;;;0.96;97.87;95578.09;5093040;28;20048;-76
2022/04/10 04:19:58;;;;;;;7.15;4.07;;;;;;;0.98;97.96;95581.25;5109225;28;20530;-75
2022/04/10 04:22:23;;;;;;;7.55;4.30;;;;;;;0.91;98.00;95590.09;5092425;28;20058;-76
2022/04/10 04:24:49;;;;;;;15.55;4.63;;;;;;;0.94;97.63;95589.66;5110113;28;20485;-76
2022/04/10 04:27:14;;;;;;;8.98;5.13;;;;;;;0.96;97.80;95578.09;5087748;28;20078;-76
2022/04/10 04:29:40;;;;;;;8.90;4.95;;;;;;;0.94;97.58;95595.63;5093227;28;20051;-77
2022/04/10 04:32:06;;;;;;;9.68;4.75;;;;;;;0.84;98.26;95585.69;5104976;28;20043;-77
2022/04/10 04:34:32;;;;;;;12.43;4.78;;;;;;;0.85;98.06;95592.47;5106132;28;20043;-77
2022/04/10 04:36:57;;;;;;;12.18;5.35;;;;;;;0.91;97.81;95601.22;5110363;28;20054;-76
2022/04/10 04:39:23;;;;;;;13.18;5.53;;;;;;;0.89;97.90;95599.84;5103748;28;20108;-76
2022/04/10 04:41:49;;;;;;;13.93;4.88;;;;;;;0.86;97.13;95594.09;5073081;28;20523;-77
2022/04/10 04:44:15;;;;;;;12.30;5.43;;;;;;;0.94;97.70;95600.03;5091203;28;20051;-75
2022/04/10 04:46:41;;;;;;;13.38;5.28;;;;;;;1.08;96.07;95606.75;5081541;28;20125;-76
2022/04/10 04:49:07;;;;;;;9.73;5.65;;;;;;;1.03;97.04;95603.97;5093893;28;20520;-77
2022/04/10 04:51:36;;;;;;;16.52;5.28;;;;;;;1.18;95.85;95608.91;5105704;28;20039;-77
2022/04/10 04:54:03;;;;;;;14.60;5.03;;;;;;;1.19;96.15;95608.69;5091777;28;20101;-77
2022/04/10 04:56:28;;;;;;;20.27;5.55;;;;;;;1.32;95.34;95612.19;5102622;28;20047;-77
2022/04/10 04:58:54;;;;;;;12.13;4.78;;;;;;;1.34;95.76;95610.22;5110882;28;20405;-77
2022/04/10 05:01:19;;;;;;;13.60;5.70;;;;;;;1.36;94.97;95619.34;5094187;28;20438;-77
2022/04/10 05:03:45;;;;;;;12.07;5.43;;;;;;;1.34;96.77;95621.38;5088071;28;20055;-76
2022/04/10 05:06:11;;;;;;;12.52;6.13;;;;;;;1.30;96.36;95620.19;5092559;28;20612;-77
2022/04/10 05:08:36;;;;;;;14.43;6.97;;;;;;;1.28;96.46;95626.56;5090619;28;20493;-77
2022/04/10 05:11:02;;;;;;;15.88;6.82;;;;;;;1.20;97.86;95636.19;5090244;28;20082;-77
2022/04/10 05:13:28;;;;;;;17.67;6.97;;;;;;;1.25;97.26;95639.94;5093495;28;20055;-77
2022/04/10 05:15:54;;;;;;;18.50;6.90;;;;;;;1.34;96.16;95646.50;5104723;28;20043;-77
2022/04/10 05:18:20;;;;;;;14.15;6.95;;;;;;;1.33;96.57;95644.91;5097447;28;20048;-77
2022/04/10 05:20:46;;;;;;;17.30;7.07;;;;;;;1.29;96.38;95646.31;5101338;28;20043;-77
2022/04/10 05:23:16;;;;;;;17.17;6.75;;;;;;;1.32;96.65;95651.09;5095865;28;20044;-76
2022/04/10 05:25:42;;;;;;;18.70;7.10;;;;;;;1.34;96.36;95646.50;5094256;28;20036;-76
2022/04/10 05:28:07;;;;;;;16.48;6.70;;;;;;;1.46;96.20;95654.41;5072036;28;20036;-77
2022/04/10 05:30:33;;;;;;;17.45;6.95;;;;;;;1.43;95.61;95650.44;5090388;28;20067;-77
2022/04/10 05:32:59;;;;;;;13.75;6.65;;;;;;;1.39;96.06;95664.81;5089921;28;20500;-77
2022/04/10 05:35:24;;;;;;;16.23;6.88;;;;;;;1.51;95.23;95657.97;5077366;28;20070;-76
2022/04/10 05:37:50;;;;;;;16.75;6.88;;;;;;;1.58;94.63;95662.31;5097658;28;20048;-77
2022/04/10 05:40:16;;;;;;;15.82;7.25;;;;;;;1.54;94.51;95667.16;5098063;28;20047;-77
2022/04/10 05:42:43;;;;;;;19.38;7.13;;;;;;;1.61;94.89;95673.09;5104150;28;20102;-77
2022/04/10 05:45:09;;;;;;;18.80;7.40;;;;;;;1.55;94.05;95679.09;5096592;28;20036;-77
2022/04/10 05:47:36;;;;;;;15.43;6.65;;;;;;;1.61;93.94;95677.47;5092416;28;20111;-77
2022/04/10 05:50:03;;;;;;;14.55;7.22;;;;;;;1.70;95.13;95681.44;5089391;28;20099;-77
2022/04/10 05:52:28;;;;;;;15.80;7.95;;;;;;;1.82;93.55;95678.94;5092329;28;20536;-77
2022/04/10 05:54:59;;;;;;;16.50;7.45;;;;;;;1.85;93.33;95684.53;5104580;28;20048;-77
2022/04/10 05:57:24;;;;;;;16.95;6.63;;;;;;;1.87;93.45;95687.69;5105222;28;20047;-77
2022/04/10 05:59:50;;;;;;;14.55;6.55;;;;;;;1.94;92.52;95692.03;5108122;28;20046;-77
2022/04/10 06:02:15;;;;;;;18.00;6.68;;;;;;;1.89;92.45;95690.88;5108699;28;20084;-77
2022/04/10 06:04:41;;;;;;;13.43;7.20;;;;;;;1.95;92.64;95698.84;5088804;28;20040;-77
2022/04/10 06:07:07;;;;;;;12.68;6.65;;;;;;;2.02;92.09;95694.41;5109723;28;20036;-77
2022/04/10 06:09:33;;;;;;;16.58;7.07;;;;;;;1.93;91.96;95700.84;5096904;27;20175;-77
2022/04/10 06:11:58;;;;;;;11.80;6.30;;;;;;;2.03;91.06;95701.19;5130499;27;20051;-77
2022/04/10 06:14:24;;;;;;;15.18;6.82;;;;;;;2.06;91.37;95705.94;5099818;27;20052;-77
2022/04/10 06:16:49;;;;;;;15.20;6.47;;;;;;;2.00;91.58;95710.19;5106352;28;20114;-76
2022/04/10 06:19:21;;;;;;;17.00;6.70;;;;;;;2.11;91.26;95713.88;5104861;28;20410;-77
2022/04/10 06:21:46;;;;;;;13.52;6.68;;;;;;;2.15;91.14;95715.06;5109873;28;20089;-78
2022/04/10 06:24:12;;;;;;;18.00;7.20;;;;;;;2.12;92.12;95719.91;5098531;28;20683;-77
2022/04/10 06:26:37;;;;;;;15.38;6.93;;;;;;;2.14;91.60;95733.44;5100915;28;20040;-77
2022/04/10 06:29:03;;;;;;;12.23;5.45;;;;;;;2.18;91.09;95738.00;5089133;28;20561;-77
2022/04/10 06:31:29;;;;;;;11.82;6.05;;;;;;;2.18;91.05;95735.41;5093839;28;20044;-75
2022/04/10 06:33:56;;;;;;;12.13;5.85;;;;;;;2.09;91.91;95741.88;5070178;28;20036;-76
2022/04/10 06:36:23;;;;;;;15.23;6.00;;;;;;;2.02;91.97;95735.94;5074736;28;20095;-77
2022/04/10 06:38:49;;;;;;;19.75;6.90;;;;;;;1.94;92.71;95741.34;5071259;28;20036;-77
2022/04/10 06:41:15;;;;;;;16.50;6.45;;;;;;;1.78;95.75;95746.06;5079819;28;20047;-77
2022/04/10 06:43:41;;;;;;;13.23;6.28;;;;;;;1.72;97.96;95746.88;5103560;28;20054;-77
2022/04/10 06:46:08;;;;;;;14.73;6.78;;;;;;;1.81;97.45;95745.63;5088153;28;20114;-77
2022/04/10 06:48:35;;;;;;;12.85;6.78;;;;;;;1.75;96.53;95746.44;5089296;28;20413;-77
2022/04/10 06:51:01;;;;;;;19.20;7.25;;;;;;;1.81;97.57;95750.00;5071494;28;20578;-77
2022/04/10 06:53:27;;;;;;;13.32;6.78;;;;;;;1.98;96.18;95750.31;5089392;28;20481;-77
2022/04/10 06:55:52;;;;;;;15.88;6.13;;;;;;;2.05;96.47;95751.06;5098640;28;20044;-77
2022/04/10 06:58:19;;;;;;;11.88;5.65;;;;;;;2.01;94.56;95744.72;5106564;28;20118;-77
2022/04/10 07:00:45;;;;;;;12.63;5.97;;;;;;;2.10;96.56;95761.66;5089793;28;20043;-77
2022/04/10 07:03:11;;;;;;;13.05;5.90;;;;;;;2.14;94.95;95769.78;5105460;28;20046;-77
2022/04/10 07:05:37;;;;;;;12.93;6.55;;;;;;;2.17;95.30;95759.81;5080955;28;20467;-76
2022/04/10 07:08:03;;;;;;;8.27;4.82;;;;;;;2.13;94.07;95766.41;5104338;28;20511;-77
2022/04/10 07:10:29;;;;;;;9.00;4.85;;;;;;;2.15;93.14;95761.78;5099703;28;20048;-77
2022/04/10 07:12:54;;;;;;;10.10;6.00;;;;;;;2.19;95.55;95768.16;5088725;28;20127;-72
2022/04/10 07:15:20;;;;;;;11.82;5.72;;;;;;;2.22;92.98;95762.53;5095744;28;20040;-76
2022/04/10 07:17:45;;;;;;;9.73;5.30;;;;;;;2.31;93.36;95770.09;5105318;28;20048;-74
2022/04/10 07:20:11;;;;;;;10.18;5.43;;;;;;;2.47;92.83;95769.59;5101183;28;20490;-74
2022/04/10 07:25:22;;;;;;;8.45;5.05;;;;;;;2.88;92.68;95768.25;5098491;28;20114;-76
2022/04/10 07:27:48;;;;;;;11.93;5.30;;;;;;;2.80;90.06;95768.50;5088217;28;20119;-76
2022/04/10 07:30:14;;;;;;;10.75;5.75;;;;;;;2.74;90.20;95771.97;5088615;28;20860;-76
2022/04/10 07:32:39;;;;;;;12.65;5.85;;;;;;;2.97;90.62;95768.75;5104096;28;20050;-76
2022/04/10 07:35:06;;;;;;;15.73;5.60;;;;;;;3.18;91.38;95770.16;5077250;28;20036;-76
2022/04/10 07:37:32;;;;;;;10.93;4.78;;;;;;;3.17;89.38;95773.75;5099580;28;20032;-76
2022/04/10 07:39:57;;;;;;;10.27;5.30;;;;;;;3.20;88.88;95770.72;5100554;28;20043;-77
2022/04/10 07:42:23;;;;;;;10.60;5.13;;;;;;;3.35;88.82;95769.56;5085871;28;20040;-75
2022/04/10 07:44:49;;;;;;;11.32;5.25;;;;;;;3.37;85.72;95777.97;5087206;28;20043;-77
2022/04/10 07:47:26;;;;;;;10.07;5.80;;;;;;;3.36;85.80;95777.19;5105711;28;20050;-76
2022/04/10 07:49:55;;;;;;;12.40;5.88;;;;;;;3.53;85.10;95785.19;5100591;28;20044;-75
2022/04/10 07:52:22;;;;;;;11.98;5.68;;;;;;;3.64;84.07;95762.84;5075188;28;20097;-76
2022/04/10 07:54:48;;;;;;;13.55;5.78;;;;;;;3.66;83.24;95770.44;5085915;28;20046;-76
2022/04/10 07:57:15;;;;;;;10.25;5.40;;;;;;;3.66;80.42;95786.06;5107674;28;20401;-78
2022/04/10 07:59:40;;;;;;;9.73;5.60;;;;;;;3.62;79.38;95791.72;5086719;28;20047;-80
2022/04/10 08:02:06;;;;;;;10.60;6.05;;;;;;;3.69;78.52;95790.81;5105706;28;20504;-79
2022/04/10 08:04:31;;;;;;;11.20;5.90;;;;;;;3.80;79.22;95790.09;5085644;28;20060;-78
2022/04/10 08:06:57;;;;;;;10.73;5.50;;;;;;;3.57;79.00;95798.56;5106514;28;20050;-76
2022/04/10 08:09:23;;;;;;;11.77;5.45;;;;;;;3.61;80.54;95795.31;5087827;28;20134;-77
2022/04/10 08:11:50;;;;;;;11.60;5.78;;;;;;;3.56;75.48;95797.78;5100932;28;20051;-78
2022/04/10 08:14:16;;;;;;;11.35;5.35;;;;;;;3.60;74.56;95803.34;5095810;28;20572;-75
2022/04/10 08:16:42;;;;;;;10.65;5.90;;;;;;;3.45;73.96;95806.31;5073384;28;20071;-77
2022/04/10 08:19:08;;;;;;;10.02;5.22;;;;;;;3.55;75.69;95806.59;5073534;28;20651;-76
2022/04/10 08:21:33;;;;;;;10.05;4.88;;;;;;;3.65;75.32;95808.69;5103816;28;20378;-77
2022/04/10 08:23:59;;;;;;;9.98;5.20;;;;;;;3.78;72.58;95799.94;5098515;28;20036;-77
2022/04/10 08:26:25;;;;;;;8.63;4.35;;;;;;;4.18;71.64;95804.66;5100746;28;20105;-77
2022/04/10 08:28:50;;;;;;;8.63;4.78;;;;;;;4.23;70.56;95796.94;5109142;28;20043;-77
2022/04/10 08:31:16;;;;;;;7.05;3.95;;;;;;;4.39;67.95;95790.31;5112056;27;20100;-77
2022/04/10 08:33:42;;;;;;;9.40;4.63;;;;;;;4.32;67.46;95795.63;5102421;28;20503;-77
2022/04/10 08:36:08;;;;;;;8.90;4.30;;;;;;;4.63;68.32;95796.38;5092834;28;20043;-76
2022/04/10 08:38:34;;;;;;;8.45;4.78;;;;;;;4.75;66.88;95801.59;5099253;27;20044;-77
2022/04/10 08:41:01;;;;;;;8.38;4.32;;;;;;;4.71;67.03;95799.66;5094613;28;20070;-76
2022/04/10 08:43:28;;;;;;;9.13;4.30;;;;;;;4.65;65.77;95794.31;5092312;28;20061;-77
2022/04/10 08:45:57;;;;;;;7.55;3.72;;;;;;;4.87;64.69;95806.84;5099088;27;20036;-76
2022/04/10 08:48:27;;;;;;;7.47;3.67;;;;;;;4.58;63.04;95811.88;5096819;28;20036;-75
2022/04/10 08:50:57;;;;;;;5.90;3.85;;;;;;;4.43;64.70;95809.69;5096166;28;20538;-76
2022/04/10 08:53:26;;;;;;;6.20;3.80;;;;;;;4.38;66.71;95819.19;5097515;28;20042;-76
2022/04/10 08:55:52;;;;;;;10.07;4.63;;;;;;;3.73;72.87;95833.63;5091523;28;20490;-75
2022/04/10 08:58:20;;;;;;;11.13;4.32;;;;;;;3.16;77.43;95855.41;5073412;28;20072;-76
2022/04/10 09:00:46;;;;;;;8.88;4.10;;;;;;;2.66;81.76;95834.59;5094150;28;20063;-77
2022/04/10 09:03:12;;;;;;;8.70;3.88;;;;;;;2.50;76.40;95841.91;5099325;28;20090;-76
2022/04/10 09:05:40;;;;;;;6.88;3.95;;;;;;;2.60;78.30;95842.22;5085609;28;20101;-76
2022/04/10 09:08:13;;;;;;;7.43;4.63;;;;;;;2.81;79.80;95836.91;5073584;28;20141;-76
2022/04/10 09:10:59;;;;;;;7.97;4.13;;;;;;;2.88;78.36;95833.22;5072374;28;20044;-78
2022/04/10 09:13:28;;;;;;;8.40;4.93;;;;;;;3.01;79.50;95826.34;5092244;28;20075;-75
2022/04/10 09:16:12;;;;;;;9.45;4.90;;;;;;;3.15;81.36;95830.41;5105442;28;20036;-73
2022/04/10 09:18:50;;;;;;;13.00;4.72;;;;;;;3.45;77.72;95827.13;5094997;28;20043;-76
2022/04/10 09:21:17;;;;;;;10.60;3.95;;;;;;;3.78;72.46;95820.78;5075967;28;20112;-76
2022/04/10 09:23:46;;;;;;;8.63;4.18;;;;;;;4.04;71.52;95811.00;5080899;28;20043;-76
2022/04/10 09:26:13;;;;;;;6.95;3.83;;;;;;;4.10;69.71;95813.53;5080360;28;20532;-76
2022/04/10 09:28:44;;;;;;;8.75;3.20;;;;;;;4.03;66.43;95806.84;5090254;28;20044;-74
2022/04/10 09:31:33;;;;;;;6.82;3.40;;;;;;;4.35;68.54;95810.00;5110014;28;20063;-77
2022/04/10 09:34:04;;;;;;;7.07;3.30;;;;;;;4.66;64.23;95811.56;5102973;28;20043;-76
2022/04/10 09:36:46;;;;;;;6.72;3.33;;;;;;;4.72;64.22;95809.09;5090200;28;20054;-76
2022/04/10 09:39:12;;;;;;;10.55;3.55;;;;;;;4.82;63.69;95819.75;5090251;28;20036;-75
2022/04/10 09:41:39;;;;;;;8.73;3.10;;;;;;;4.76;61.29;95810.22;5089891;28;20494;-76
2022/04/10 09:44:12;;;;;;;6.85;3.08;;;;;;;4.83;60.04;95816.13;5089604;28;20123;-76
2022/04/10 09:46:39;;;;;;;5.22;2.80;;;;;;;4.92;59.35;95814.75;5096743;28;20055;-76
2022/04/10 09:49:11;;;;;;;6.43;3.80;;;;;;;5.15;64.30;95807.97;5104472;28;20043;-75
2022/04/10 09:51:37;;;;;;;5.25;2.88;;;;;;;5.11;60.36;95806.84;5096324;28;20044;-73
2022/04/10 09:54:05;;;;;;;5.53;2.97;;;;;;;5.45;60.95;95807.06;5089678;28;20040;-74
2022/04/10 09:56:30;;;;;;;5.40;3.17;;;;;;;5.72;59.55;95808.13;5089932;28;20055;-74
2022/04/10 09:58:59;;;;;;;6.25;2.75;;;;;;;5.41;56.23;95811.16;5089610;28;20044;-74
2022/04/10 10:01:28;;;;;;;4.85;3.22;;;;;;;5.18;57.67;95791.88;5105404;28;20389;-74
2022/04/10 10:03:57;;;;;;;5.50;2.65;;;;;;;5.24;59.88;95793.56;5096896;28;20044;-73
2022/04/10 10:06:24;;;;;;;5.30;2.75;;;;;;;5.46;56.30;95798.19;5092017;28;20060;-75
2022/04/10 10:08:50;;;;;;;6.05;2.83;;;;;;;5.76;56.47;95792.00;5086523;28;20039;-74
2022/04/10 10:11:17;;;;;;;7.13;3.00;;;;;;;5.83;52.56;95797.88;5089625;28;20477;-75
2022/04/10 10:13:43;;;;;;;8.07;3.22;;;;;;;6.29;57.17;95796.16;5093454;28;20038;-75
2022/04/10 10:16:10;;;;;;;8.98;3.25;;;;;;;6.38;57.73;95794.75;5091022;28;20043;-75
2022/04/10 10:18:37;;;;;;;5.28;2.83;;;;;;;7.02;56.79;95795.50;5109978;28;20122;-75
2022/04/10 10:21:03;;;;;;;6.82;2.90;;;;;;;7.16;52.35;95795.97;5089059;28;20154;-75
2022/04/10 10:23:29;;;;;;;5.53;2.85;;;;;;;7.55;50.75;95796.75;5086100;28;20043;-75
2022/04/10 10:26:24;;;;;;;4.78;2.58;;;;;;;7.30;51.83;95794.59;5106929;28;20046;-75
2022/04/10 10:29:00;;;;;;;;;;;;;;;6.49;50.48;95794.91;5106720;28;20047;-74
2022/04/10 10:31:45;;;;;;;8.05;2.97;;;;;;;6.28;51.31;95794.59;5109495;28;19923;-76
2022/04/10 10:34:11;;;;;;;4.55;2.50;;;;;;;6.00;51.91;95796.16;5109620;28;20130;-75
2022/04/10 10:36:37;;;;;;;6.63;2.90;;;;;;;5.98;53.43;95784.38;5098562;28;20509;-74
2022/04/10 10:39:07;;;;;;;4.20;2.75;;;;;;;5.64;51.94;95800.66;5071822;28;20048;-75
2022/04/10 10:41:35;;;;;;;5.03;2.90;;;;;;;5.51;51.61;95806.13;5089101;28;20046;-75
2022/04/10 10:44:34;;;;;;;6.88;2.58;;;;;;;5.30;52.07;95795.28;5092353;28;20063;-73
2022/04/10 10:47:02;;;;;;;6.13;2.80;;;;;;;5.73;52.53;95794.06;5098055;28;20073;-75
2022/04/10 10:49:29;;;;;;;5.32;2.78;;;;;;;5.71;52.54;95796.09;5081468;28;20524;-75
2022/04/10 10:51:56;;;;;;;6.22;2.70;;;;;;;7.66;50.93;95791.63;5088663;28;20044;-75
2022/04/10 10:54:25;;;;;;;5.47;2.72;;;;;;;8.11;48.29;95788.75;5088675;28;20036;-75
2022/04/10 10:56:51;;;;;;;5.65;3.05;;;;;;;9.03;46.37;95788.00;5084593;28;20487;-74
2022/04/10 10:59:24;;;;;;;7.35;2.78;;;;;;;9.72;43.81;95778.38;5083093;28;20031;-75
2022/04/10 11:01:54;;;;;;;6.83;2.83;;;;;;;9.83;44.54;95780.00;5076477;28;20044;-74
2022/04/10 11:04:23;;;;;;;12.30;2.70;;;;;;;9.25;43.88;95779.19;5090189;28;20284;-77
2022/04/10 11:06:49;;;;;;;6.40;2.53;;;;;;;8.32;44.58;95788.97;5081595;28;20043;-74
2022/04/10 11:09:28;;;;;;;5.28;2.75;;;;;;;7.56;45.25;95797.56;5083642;28;20100;-77
2022/04/10 11:11:56;;;;;;;6.20;2.85;;;;;;;7.20;49.96;95794.47;5098162;28;20040;-79
2022/04/10 11:14:31;;;;;;;4.97;2.65;;;;;;;7.50;46.67;95793.25;5101135;28;20047;-76
2022/04/10 11:17:17;;;;;;;5.55;2.60;;;;;;;8.43;43.49;95793.25;5090901;28;20040;-78
2022/04/10 11:19:57;;;;;;;4.90;2.70;;;;;;;8.05;43.91;95789.72;5102532;28;20140;-78
2022/04/10 11:22:33;;;;;;;7.25;2.50;;;;;;;8.72;44.79;95787.78;5102902;28;20094;-77
2022/04/10 11:25:03;;;;;;;6.55;3.08;;;;;;;8.64;46.64;95796.09;5089226;28;20088;-76
2022/04/10 11:27:51;;;;;;;5.20;3.00;;;;;;;9.42;48.94;95779.03;5112364;28;20473;-77
2022/04/10 11:30:24;;;;;;;7.25;3.20;;;;;;;9.27;45.90;95785.00;5094654;28;20032;-78
2022/04/10 11:32:55;;;;;;;6.40;3.10;;;;;;;8.43;48.20;95801.13;5092900;28;20047;-74
2022/04/10 11:35:26;;;;;;;6.85;2.97;;;;;;;7.46;47.87;95801.59;5089475;28;20284;-75
2022/04/10 11:37:57;;;;;;;6.68;3.42;;;;;;;7.50;49.85;95811.59;5103629;28;20046;-77
2022/04/10 11:40:27;;;;;;;7.70;3.38;;;;;;;7.02;48.99;95819.81;5100651;28;20036;-75
2022/04/10 11:42:55;;;;;;;5.20;3.00;;;;;;;6.66;52.38;95842.81;5102640;27;20572;-76